KOXC/OXC METAR and TAF weather

Enter ICAO airport designator
Station Type Date Time Source
KOXC METAR 2022/01/19 18:51 UTC NOAA

KOXC 191851Z 22008G14KT 170V270 10SM CLR 04/M04 A2993 RMK AO2 SLP154 T00441039


Station Type Date Time Source
KOXC Decoded METAR 2022/01/19 18:51 UTC NOAA

Oxford, Waterbury-Oxford Airport, CT, United States (KOXC) 41-29N 073-08W
Jan 19, 2022 - 01:51 PM EST / 2022.01.19 1851 UTC
Wind: from the SW (220 degrees) at 9 MPH (8 KT) gusting to 16 MPH (14 KT) (direction variable):0
Visibility: 10 mile(s):0
Sky conditions: clear
Temperature: 39.9 F (4.4 C)
Dew Point: 25.0 F (-3.9 C)
Relative Humidity: 54%
Pressure (altimeter): 29.93 in. Hg (1013 hPa)
ob: KOXC 191851Z 22008G14KT 170V270 10SM CLR 04/M04 A2993 RMK AO2 SLP154 T00441039
cycle: 19

Station Type Date Time Source
KOXC TAF UTC NOAA

Error!

Example: see airport list